Minna Airport

DNMN · Niger, 尼日利亚

罗盘
风向 的 风向 080° Minna Airport 5/23
风: 8 kt, 3 beaufort

7 kt

5 kt
改变
0 1.000 2.000 3.000 4.000 5.000
CAVOK
METAR DNAA 060900Z 08008KT CAVOK 32/12 Q1014 NOSIG

METAR Minna Airport - DNMN/MXJ

Minna Airport是,尼日利亚中的中型机场。 该机场有一条跑道: 5/23. 该领域的国际民航组织标志是DNMN 它的国际航空运输协会代码是MXJ.

这份报告是针对2022年12月6日 10:00, 当地时间在纳姆迪·阿齐基韦国际机场进行的。

机场观察

风向为080°,速度为8 kt。

天气为CAVOK。这意味着在5.000 ft或MSA(最低安全高度)以下(以较高者为准)以下没有云。这也意味着没有观测到积雨云或高耸的积云,可见度为10 km 或者更多或更高。此外,不会有雾,降雨或其他重要天气。

温度和风寒是32 °C。 露点为12 °C,相对湿度为29%。 海平面上的气压为1014 hPa (QNH)。

白天

今天,太阳从06:37升起,在18:12降落。 这适用于Minna Airport,世界夏令时可能有所不同。 当地时间与世界标准时间之间的时差为+1 小时。 当前,没有夏令时有效。

公司介绍

我们没有关于这个机场的公司信息。

体会

到Vliegles.nl去找飞行课程,跳伞和其他飞行体验。 浏览页面,了解Minna Airport附近所有可用的活动。 你也可以使用搜索功能来寻找你所在地附近的特定飞行课程、跳伞或其他飞行体验。

跑道

Id 标题 侧风 逆风 侧风 %
5/23 045°-225° 5 kt 7 kt 57 %

逆风成分最大的方向会被突出显示,并用于横风计算。 这并不一定意味着这个方向在使用。

温度 & 天气

温度 32 °C
露点 12 °C
相对湿度 29%
Kp-index 0 (0-9)

白天

日出
06:33
中午
12:21
日落
18:10 (7:10)

小工具

你想在你的网站上有一个关于Minna Airport的当前航空天气(METAR)的小部件吗?

显示HTML代码

我们和第三方通过cookies跟踪您在我们网站上的互联网行为。如果你继续,我们认为你同意我们的饼干政策